sensor_id;sensor_type;location;lat;lon;timestamp;P1;durP1;ratioP1;P2;durP2;ratioP2
55031;SDS011;40928;51.076;7.950;2023-01-10T00:00:38;9.68;;;3.45;;
55031;SDS011;40928;51.076;7.950;2023-01-10T00:03:04;8.27;;;4.03;;
55031;SDS011;40928;51.076;7.950;2023-01-10T00:05:32;6.68;;;3.97;;
55031;SDS011;40928;51.076;7.950;2023-01-10T00:07:58;8.13;;;4.38;;
55031;SDS011;40928;51.076;7.950;2023-01-10T00:10:26;8.63;;;4.55;;
55031;SDS011;40928;51.076;7.950;2023-01-10T00:12:52;16.42;;;4.10;;
55031;SDS011;40928;51.076;7.950;2023-01-10T00:15:36;7.63;;;3.72;;
55031;SDS011;40928;51.076;7.950;2023-01-10T00:18:02;7.70;;;3.65;;
55031;SDS011;40928;51.076;7.950;2023-01-10T00:20:28;11.85;;;4.30;;
55031;SDS011;40928;51.076;7.950;2023-01-10T00:22:53;7.88;;;4.03;;
55031;SDS011;40928;51.076;7.950;2023-01-10T00:25:19;13.10;;;4.40;;
55031;SDS011;40928;51.076;7.950;2023-01-10T00:27:46;10.68;;;5.15;;
55031;SDS011;40928;51.076;7.950;2023-01-10T00:30:19;15.52;;;5.00;;
55031;SDS011;40928;51.076;7.950;2023-01-10T00:32:45;16.08;;;5.47;;
55031;SDS011;40928;51.076;7.950;2023-01-10T00:35:10;11.85;;;4.90;;
55031;SDS011;40928;51.076;7.950;2023-01-10T00:37:37;12.57;;;5.45;;
55031;SDS011;40928;51.076;7.950;2023-01-10T00:40:04;12.23;;;5.60;;
55031;SDS011;40928;51.076;7.950;2023-01-10T00:42:34;14.85;;;5.43;;
55031;SDS011;40928;51.076;7.950;2023-01-10T00:47:47;9.13;;;4.82;;
55031;SDS011;40928;51.076;7.950;2023-01-10T00:50:12;12.57;;;5.38;;
55031;SDS011;40928;51.076;7.950;2023-01-10T00:52:38;12.50;;;5.90;;
55031;SDS011;40928;51.076;7.950;2023-01-10T00:55:04;21.58;;;6.40;;
55031;SDS011;40928;51.076;7.950;2023-01-10T00:57:30;13.30;;;5.80;;
55031;SDS011;40928;51.076;7.950;2023-01-10T00:59:56;22.73;;;7.13;;
55031;SDS011;40928;51.076;7.950;2023-01-10T01:02:22;18.10;;;6.43;;
55031;SDS011;40928;51.076;7.950;2023-01-10T01:04:47;17.77;;;6.32;;
55031;SDS011;40928;51.076;7.950;2023-01-10T01:07:13;20.20;;;5.72;;
55031;SDS011;40928;51.076;7.950;2023-01-10T01:09:38;13.77;;;5.53;;
55031;SDS011;40928;51.076;7.950;2023-01-10T01:12:24;11.82;;;5.68;;
55031;SDS011;40928;51.076;7.950;2023-01-10T01:14:49;14.48;;;5.60;;
55031;SDS011;40928;51.076;7.950;2023-01-10T01:17:15;17.95;;;6.40;;
55031;SDS011;40928;51.076;7.950;2023-01-10T01:19:41;11.73;;;5.43;;
55031;SDS011;40928;51.076;7.950;2023-01-10T01:22:07;13.73;;;5.93;;
55031;SDS011;40928;51.076;7.950;2023-01-10T01:24:32;15.10;;;5.20;;
55031;SDS011;40928;51.076;7.950;2023-01-10T01:26:58;12.75;;;5.82;;
55031;SDS011;40928;51.076;7.950;2023-01-10T01:29:23;9.35;;;4.82;;
55031;SDS011;40928;51.076;7.950;2023-01-10T01:31:49;16.38;;;5.90;;
55031;SDS011;40928;51.076;7.950;2023-01-10T01:34:15;14.52;;;5.80;;
55031;SDS011;40928;51.076;7.950;2023-01-10T01:36:40;16.63;;;6.57;;
55031;SDS011;40928;51.076;7.950;2023-01-10T01:39:05;13.30;;;5.50;;
55031;SDS011;40928;51.076;7.950;2023-01-10T01:41:31;16.27;;;5.50;;
55031;SDS011;40928;51.076;7.950;2023-01-10T01:44:16;11.75;;;5.55;;
55031;SDS011;40928;51.076;7.950;2023-01-10T01:46:44;13.65;;;6.60;;
55031;SDS011;40928;51.076;7.950;2023-01-10T01:49:15;9.50;;;4.53;;
55031;SDS011;40928;51.076;7.950;2023-01-10T01:51:46;12.77;;;4.00;;
55031;SDS011;40928;51.076;7.950;2023-01-10T01:54:15;10.88;;;4.38;;
55031;SDS011;40928;51.076;7.950;2023-01-10T01:56:45;13.00;;;5.35;;
55031;SDS011;40928;51.076;7.950;2023-01-10T01:59:23;11.02;;;5.07;;
55031;SDS011;40928;51.076;7.950;2023-01-10T02:01:54;10.63;;;5.43;;
55031;SDS011;40928;51.076;7.950;2023-01-10T02:04:27;10.15;;;4.50;;
55031;SDS011;40928;51.076;7.950;2023-01-10T02:06:59;10.73;;;4.75;;
55031;SDS011;40928;51.076;7.950;2023-01-10T02:09:27;9.35;;;4.07;;
55031;SDS011;40928;51.076;7.950;2023-01-10T02:11:57;8.45;;;4.07;;
55031;SDS011;40928;51.076;7.950;2023-01-10T02:14:23;9.25;;;4.18;;
55031;SDS011;40928;51.076;7.950;2023-01-10T02:16:50;10.07;;;4.30;;
55031;SDS011;40928;51.076;7.950;2023-01-10T02:19:24;19.25;;;4.78;;
55031;SDS011;40928;51.076;7.950;2023-01-10T02:33:24;13.02;;;5.28;;
55031;SDS011;40928;51.076;7.950;2023-01-10T02:35:58;11.77;;;5.20;;
55031;SDS011;40928;51.076;7.950;2023-01-10T02:43:56;10.68;;;6.60;;
55031;SDS011;40928;51.076;7.950;2023-01-10T02:46:28;9.23;;;5.13;;
55031;SDS011;40928;51.076;7.950;2023-01-10T02:48:55;11.88;;;5.30;;
55031;SDS011;40928;51.076;7.950;2023-01-10T02:51:22;15.82;;;6.15;;
55031;SDS011;40928;51.076;7.950;2023-01-10T02:53:55;11.35;;;5.43;;
55031;SDS011;40928;51.076;7.950;2023-01-10T03:02:09;14.88;;;5.95;;
55031;SDS011;40928;51.076;7.950;2023-01-10T03:09:57;20.75;;;6.40;;
55031;SDS011;40928;51.076;7.950;2023-01-10T03:12:43;21.02;;;6.35;;
55031;SDS011;40928;51.076;7.950;2023-01-10T03:15:15;15.52;;;5.95;;
55031;SDS011;40928;51.076;7.950;2023-01-10T03:17:44;16.70;;;5.53;;
55031;SDS011;40928;51.076;7.950;2023-01-10T03:20:14;16.17;;;6.40;;
55031;SDS011;40928;51.076;7.950;2023-01-10T03:22:44;18.67;;;6.00;;
55031;SDS011;40928;51.076;7.950;2023-01-10T03:25:12;22.67;;;5.90;;
55031;SDS011;40928;51.076;7.950;2023-01-10T03:27:46;10.43;;;5.00;;
55031;SDS011;40928;51.076;7.950;2023-01-10T03:30:19;14.95;;;6.70;;
55031;SDS011;40928;51.076;7.950;2023-01-10T03:32:48;22.45;;;5.68;;
55031;SDS011;40928;51.076;7.950;2023-01-10T03:35:14;16.27;;;5.90;;
55031;SDS011;40928;51.076;7.950;2023-01-10T03:37:45;15.63;;;5.20;;
55031;SDS011;40928;51.076;7.950;2023-01-10T03:40:34;18.38;;;5.47;;
55031;SDS011;40928;51.076;7.950;2023-01-10T03:43:09;12.90;;;6.03;;
55031;SDS011;40928;51.076;7.950;2023-01-10T03:46:11;12.68;;;5.60;;
55031;SDS011;40928;51.076;7.950;2023-01-10T03:48:46;13.65;;;5.15;;
55031;SDS011;40928;51.076;7.950;2023-01-10T03:51:13;13.00;;;5.65;;
55031;SDS011;40928;51.076;7.950;2023-01-10T03:53:41;10.32;;;5.82;;
55031;SDS011;40928;51.076;7.950;2023-01-10T03:56:06;12.68;;;5.30;;
55031;SDS011;40928;51.076;7.950;2023-01-10T03:58:32;20.08;;;5.68;;
55031;SDS011;40928;51.076;7.950;2023-01-10T04:00:58;14.02;;;6.22;;
55031;SDS011;40928;51.076;7.950;2023-01-10T04:03:23;13.90;;;5.57;;
55031;SDS011;40928;51.076;7.950;2023-01-10T04:05:49;12.70;;;6.82;;
55031;SDS011;40928;51.076;7.950;2023-01-10T04:08:14;13.95;;;6.85;;
55031;SDS011;40928;51.076;7.950;2023-01-10T04:10:40;20.88;;;6.88;;
55031;SDS011;40928;51.076;7.950;2023-01-10T04:13:05;18.95;;;6.82;;
55031;SDS011;40928;51.076;7.950;2023-01-10T04:15:31;18.83;;;6.20;;
55031;SDS011;40928;51.076;7.950;2023-01-10T04:17:57;26.85;;;7.57;;
55031;SDS011;40928;51.076;7.950;2023-01-10T04:20:22;16.80;;;6.30;;
55031;SDS011;40928;51.076;7.950;2023-01-10T04:22:51;13.95;;;5.97;;
55031;SDS011;40928;51.076;7.950;2023-01-10T04:25:18;17.10;;;6.43;;
55031;SDS011;40928;51.076;7.950;2023-01-10T04:27:45;14.27;;;5.85;;
55031;SDS011;40928;51.076;7.950;2023-01-10T04:30:10;11.75;;;5.40;;
55031;SDS011;40928;51.076;7.950;2023-01-10T04:32:36;17.55;;;6.50;;
55031;SDS011;40928;51.076;7.950;2023-01-10T04:35:01;19.52;;;7.15;;
55031;SDS011;40928;51.076;7.950;2023-01-10T04:37:27;21.70;;;6.05;;
55031;SDS011;40928;51.076;7.950;2023-01-10T04:39:52;13.60;;;6.40;;
55031;SDS011;40928;51.076;7.950;2023-01-10T04:42:18;17.98;;;7.63;;
55031;SDS011;40928;51.076;7.950;2023-01-10T04:44:43;20.08;;;7.28;;
55031;SDS011;40928;51.076;7.950;2023-01-10T04:47:09;23.42;;;6.47;;
55031;SDS011;40928;51.076;7.950;2023-01-10T04:49:34;15.70;;;7.30;;
55031;SDS011;40928;51.076;7.950;2023-01-10T04:52:00;16.73;;;8.50;;
55031;SDS011;40928;51.076;7.950;2023-01-10T04:54:25;18.42;;;7.35;;
55031;SDS011;40928;51.076;7.950;2023-01-10T04:56:51;17.63;;;6.90;;
55031;SDS011;40928;51.076;7.950;2023-01-10T04:59:16;10.75;;;6.10;;
55031;SDS011;40928;51.076;7.950;2023-01-10T05:01:42;21.33;;;6.60;;
55031;SDS011;40928;51.076;7.950;2023-01-10T05:04:08;27.35;;;6.15;;
55031;SDS011;40928;51.076;7.950;2023-01-10T05:06:34;15.25;;;5.35;;
55031;SDS011;40928;51.076;7.950;2023-01-10T05:08:59;19.95;;;6.10;;
55031;SDS011;40928;51.076;7.950;2023-01-10T05:11:25;22.58;;;5.05;;
55031;SDS011;40928;51.076;7.950;2023-01-10T05:13:50;12.68;;;5.47;;
55031;SDS011;40928;51.076;7.950;2023-01-10T05:16:16;14.00;;;5.38;;
55031;SDS011;40928;51.076;7.950;2023-01-10T05:18:41;16.73;;;6.25;;
55031;SDS011;40928;51.076;7.950;2023-01-10T05:21:08;17.73;;;5.55;;
55031;SDS011;40928;51.076;7.950;2023-01-10T05:23:36;18.73;;;6.80;;
55031;SDS011;40928;51.076;7.950;2023-01-10T05:26:05;18.85;;;5.55;;
55031;SDS011;40928;51.076;7.950;2023-01-10T05:28:35;20.33;;;6.00;;
55031;SDS011;40928;51.076;7.950;2023-01-10T05:31:01;11.70;;;5.00;;
55031;SDS011;40928;51.076;7.950;2023-01-10T05:33:29;19.45;;;6.45;;
55031;SDS011;40928;51.076;7.950;2023-01-10T05:35:54;16.77;;;5.03;;
55031;SDS011;40928;51.076;7.950;2023-01-10T05:38:20;16.27;;;5.07;;
55031;SDS011;40928;51.076;7.950;2023-01-10T05:40:45;18.52;;;4.80;;
55031;SDS011;40928;51.076;7.950;2023-01-10T05:43:11;17.67;;;6.45;;
55031;SDS011;40928;51.076;7.950;2023-01-10T05:45:36;12.60;;;5.93;;
55031;SDS011;40928;51.076;7.950;2023-01-10T05:48:02;13.98;;;5.22;;
55031;SDS011;40928;51.076;7.950;2023-01-10T05:50:28;16.50;;;5.95;;
55031;SDS011;40928;51.076;7.950;2023-01-10T05:52:58;14.00;;;5.38;;
55031;SDS011;40928;51.076;7.950;2023-01-10T05:55:28;18.00;;;5.85;;
55031;SDS011;40928;51.076;7.950;2023-01-10T05:57:54;14.98;;;5.65;;
55031;SDS011;40928;51.076;7.950;2023-01-10T06:00:20;28.92;;;5.47;;
55031;SDS011;40928;51.076;7.950;2023-01-10T06:02:45;15.73;;;5.18;;
55031;SDS011;40928;51.076;7.950;2023-01-10T06:05:14;18.52;;;6.00;;
55031;SDS011;40928;51.076;7.950;2023-01-10T06:07:39;14.27;;;5.97;;
55031;SDS011;40928;51.076;7.950;2023-01-10T06:10:05;18.63;;;5.13;;
55031;SDS011;40928;51.076;7.950;2023-01-10T06:12:31;19.88;;;5.82;;
55031;SDS011;40928;51.076;7.950;2023-01-10T06:14:57;22.85;;;5.40;;
55031;SDS011;40928;51.076;7.950;2023-01-10T06:17:22;21.17;;;5.38;;
55031;SDS011;40928;51.076;7.950;2023-01-10T06:19:48;13.40;;;5.78;;
55031;SDS011;40928;51.076;7.950;2023-01-10T06:22:13;18.52;;;5.95;;
55031;SDS011;40928;51.076;7.950;2023-01-10T06:24:39;16.65;;;5.30;;
55031;SDS011;40928;51.076;7.950;2023-01-10T06:27:07;18.63;;;5.80;;
55031;SDS011;40928;51.076;7.950;2023-01-10T06:29:33;20.65;;;5.72;;
55031;SDS011;40928;51.076;7.950;2023-01-10T06:31:58;16.42;;;5.38;;
55031;SDS011;40928;51.076;7.950;2023-01-10T06:34:24;24.17;;;6.07;;
55031;SDS011;40928;51.076;7.950;2023-01-10T06:36:49;21.33;;;6.43;;
55031;SDS011;40928;51.076;7.950;2023-01-10T06:39:15;19.02;;;5.63;;
55031;SDS011;40928;51.076;7.950;2023-01-10T06:41:41;23.98;;;6.45;;
55031;SDS011;40928;51.076;7.950;2023-01-10T06:44:08;20.60;;;5.45;;
55031;SDS011;40928;51.076;7.950;2023-01-10T06:46:34;22.90;;;6.80;;
55031;SDS011;40928;51.076;7.950;2023-01-10T06:49:00;28.02;;;7.32;;
55031;SDS011;40928;51.076;7.950;2023-01-10T06:51:26;26.80;;;6.18;;
55031;SDS011;40928;51.076;7.950;2023-01-10T06:53:57;26.42;;;7.03;;
55031;SDS011;40928;51.076;7.950;2023-01-10T06:56:23;20.83;;;5.65;;
55031;SDS011;40928;51.076;7.950;2023-01-10T06:58:50;25.60;;;6.57;;
55031;SDS011;40928;51.076;7.950;2023-01-10T07:01:16;20.25;;;5.53;;
55031;SDS011;40928;51.076;7.950;2023-01-10T07:03:52;16.23;;;6.15;;
55031;SDS011;40928;51.076;7.950;2023-01-10T07:06:17;20.75;;;5.93;;
55031;SDS011;40928;51.076;7.950;2023-01-10T07:08:44;22.67;;;6.15;;
55031;SDS011;40928;51.076;7.950;2023-01-10T07:11:12;26.20;;;5.78;;
55031;SDS011;40928;51.076;7.950;2023-01-10T07:13:39;19.55;;;5.18;;
55031;SDS011;40928;51.076;7.950;2023-01-10T07:16:06;34.85;;;7.50;;
55031;SDS011;40928;51.076;7.950;2023-01-10T07:18:37;19.02;;;4.78;;
55031;SDS011;40928;51.076;7.950;2023-01-10T07:21:04;13.48;;;4.70;;
55031;SDS011;40928;51.076;7.950;2023-01-10T07:23:30;15.88;;;4.95;;
55031;SDS011;40928;51.076;7.950;2023-01-10T07:25:56;24.27;;;4.57;;
55031;SDS011;40928;51.076;7.950;2023-01-10T07:28:23;19.40;;;4.10;;
55031;SDS011;40928;51.076;7.950;2023-01-10T07:30:49;17.83;;;4.20;;
55031;SDS011;40928;51.076;7.950;2023-01-10T07:33:14;29.73;;;4.25;;
55031;SDS011;40928;51.076;7.950;2023-01-10T07:35:40;18.65;;;4.60;;
55031;SDS011;40928;51.076;7.950;2023-01-10T07:38:06;14.10;;;3.88;;
55031;SDS011;40928;51.076;7.950;2023-01-10T07:40:33;27.95;;;4.18;;
55031;SDS011;40928;51.076;7.950;2023-01-10T07:42:59;16.63;;;4.32;;
55031;SDS011;40928;51.076;7.950;2023-01-10T07:45:26;12.88;;;3.08;;
55031;SDS011;40928;51.076;7.950;2023-01-10T07:47:59;15.13;;;4.15;;
55031;SDS011;40928;51.076;7.950;2023-01-10T07:50:27;14.98;;;2.83;;
55031;SDS011;40928;51.076;7.950;2023-01-10T07:52:53;17.95;;;3.25;;
55031;SDS011;40928;51.076;7.950;2023-01-10T07:55:19;17.08;;;3.90;;
55031;SDS011;40928;51.076;7.950;2023-01-10T07:57:45;20.92;;;3.95;;
55031;SDS011;40928;51.076;7.950;2023-01-10T08:00:11;14.90;;;3.13;;
55031;SDS011;40928;51.076;7.950;2023-01-10T08:02:37;14.90;;;3.40;;
55031;SDS011;40928;51.076;7.950;2023-01-10T08:05:03;16.92;;;3.60;;
55031;SDS011;40928;51.076;7.950;2023-01-10T08:07:29;24.80;;;3.15;;
55031;SDS011;40928;51.076;7.950;2023-01-10T08:09:55;11.35;;;2.97;;
55031;SDS011;40928;51.076;7.950;2023-01-10T08:12:20;20.00;;;3.22;;
55031;SDS011;40928;51.076;7.950;2023-01-10T08:14:49;21.58;;;2.85;;
55031;SDS011;40928;51.076;7.950;2023-01-10T08:17:15;18.42;;;2.88;;
55031;SDS011;40928;51.076;7.950;2023-01-10T08:19:43;12.23;;;2.75;;
55031;SDS011;40928;51.076;7.950;2023-01-10T08:22:09;23.85;;;4.30;;
55031;SDS011;40928;51.076;7.950;2023-01-10T08:24:35;17.27;;;3.05;;
55031;SDS011;40928;51.076;7.950;2023-01-10T08:27:00;14.55;;;2.80;;
55031;SDS011;40928;51.076;7.950;2023-01-10T08:29:26;10.75;;;3.33;;
55031;SDS011;40928;51.076;7.950;2023-01-10T08:31:52;18.30;;;3.28;;
55031;SDS011;40928;51.076;7.950;2023-01-10T08:34:18;14.20;;;3.42;;
55031;SDS011;40928;51.076;7.950;2023-01-10T08:36:44;15.27;;;2.58;;
55031;SDS011;40928;51.076;7.950;2023-01-10T08:39:10;22.27;;;3.35;;
55031;SDS011;40928;51.076;7.950;2023-01-10T08:41:36;13.27;;;1.95;;
55031;SDS011;40928;51.076;7.950;2023-01-10T08:44:04;15.20;;;2.78;;
55031;SDS011;40928;51.076;7.950;2023-01-10T08:46:30;13.43;;;2.85;;
55031;SDS011;40928;51.076;7.950;2023-01-10T08:48:55;26.38;;;3.22;;
55031;SDS011;40928;51.076;7.950;2023-01-10T08:51:21;20.05;;;2.55;;
55031;SDS011;40928;51.076;7.950;2023-01-10T08:53:47;20.50;;;2.88;;
55031;SDS011;40928;51.076;7.950;2023-01-10T08:56:21;14.63;;;2.67;;
55031;SDS011;40928;51.076;7.950;2023-01-10T08:59:00;14.77;;;2.67;;
55031;SDS011;40928;51.076;7.950;2023-01-10T09:01:26;17.17;;;2.33;;
55031;SDS011;40928;51.076;7.950;2023-01-10T09:03:51;25.88;;;2.78;;
55031;SDS011;40928;51.076;7.950;2023-01-10T09:06:17;17.05;;;2.58;;
55031;SDS011;40928;51.076;7.950;2023-01-10T09:08:43;10.23;;;2.03;;
55031;SDS011;40928;51.076;7.950;2023-01-10T09:11:09;12.60;;;2.33;;
55031;SDS011;40928;51.076;7.950;2023-01-10T09:13:34;13.15;;;2.50;;
55031;SDS011;40928;51.076;7.950;2023-01-10T09:16:00;18.92;;;2.90;;
55031;SDS011;40928;51.076;7.950;2023-01-10T09:18:25;11.00;;;2.28;;
55031;SDS011;40928;51.076;7.950;2023-01-10T09:20:51;16.63;;;2.97;;
55031;SDS011;40928;51.076;7.950;2023-01-10T09:23:18;14.80;;;2.55;;
55031;SDS011;40928;51.076;7.950;2023-01-10T09:26:00;13.02;;;2.08;;
55031;SDS011;40928;51.076;7.950;2023-01-10T09:28:27;16.73;;;2.58;;
55031;SDS011;40928;51.076;7.950;2023-01-10T09:30:52;10.88;;;1.85;;
55031;SDS011;40928;51.076;7.950;2023-01-10T09:33:27;21.77;;;3.15;;
55031;SDS011;40928;51.076;7.950;2023-01-10T09:35:56;11.40;;;2.03;;
55031;SDS011;40928;51.076;7.950;2023-01-10T09:38:22;14.90;;;2.10;;
55031;SDS011;40928;51.076;7.950;2023-01-10T09:41:09;14.18;;;3.00;;
55031;SDS011;40928;51.076;7.950;2023-01-10T09:53:02;17.35;;;3.20;;
55031;SDS011;40928;51.076;7.950;2023-01-10T09:59:12;16.55;;;2.70;;
55031;SDS011;40928;51.076;7.950;2023-01-10T10:01:45;20.33;;;2.83;;
55031;SDS011;40928;51.076;7.950;2023-01-10T10:07:04;9.85;;;2.28;;
55031;SDS011;40928;51.076;7.950;2023-01-10T10:09:38;25.02;;;3.40;;
55031;SDS011;40928;51.076;7.950;2023-01-10T10:17:33;15.57;;;2.85;;
55031;SDS011;40928;51.076;7.950;2023-01-10T10:25:36;10.82;;;1.90;;
55031;SDS011;40928;51.076;7.950;2023-01-10T10:33:45;13.55;;;1.92;;
55031;SDS011;40928;51.076;7.950;2023-01-10T10:36:44;19.52;;;2.78;;
55031;SDS011;40928;51.076;7.950;2023-01-10T10:39:18;9.95;;;1.98;;
55031;SDS011;40928;51.076;7.950;2023-01-10T10:41:49;7.57;;;2.03;;
55031;SDS011;40928;51.076;7.950;2023-01-10T10:46:51;20.27;;;2.15;;
55031;SDS011;40928;51.076;7.950;2023-01-10T10:49:21;12.07;;;2.05;;
55031;SDS011;40928;51.076;7.950;2023-01-10T10:52:09;15.27;;;2.28;;
55031;SDS011;40928;51.076;7.950;2023-01-10T10:54:40;16.98;;;2.50;;
55031;SDS011;40928;51.076;7.950;2023-01-10T10:57:08;19.13;;;2.33;;
55031;SDS011;40928;51.076;7.950;2023-01-10T10:59:40;12.52;;;1.77;;
55031;SDS011;40928;51.076;7.950;2023-01-10T11:05:06;11.35;;;2.45;;
55031;SDS011;40928;51.076;7.950;2023-01-10T11:07:40;14.77;;;2.07;;
55031;SDS011;40928;51.076;7.950;2023-01-10T11:10:11;13.43;;;1.77;;
55031;SDS011;40928;51.076;7.950;2023-01-10T11:15:51;14.85;;;2.03;;
55031;SDS011;40928;51.076;7.950;2023-01-10T11:18:18;16.77;;;2.38;;
55031;SDS011;40928;51.076;7.950;2023-01-10T11:26:10;14.30;;;2.15;;
55031;SDS011;40928;51.076;7.950;2023-01-10T11:29:07;14.95;;;2.17;;
55031;SDS011;40928;51.076;7.950;2023-01-10T11:31:44;11.27;;;1.30;;
55031;SDS011;40928;51.076;7.950;2023-01-10T11:34:25;27.55;;;2.90;;
55031;SDS011;40928;51.076;7.950;2023-01-10T11:39:20;14.82;;;2.70;;
55031;SDS011;40928;51.076;7.950;2023-01-10T11:41:49;15.95;;;1.95;;
55031;SDS011;40928;51.076;7.950;2023-01-10T11:46:54;15.05;;;2.70;;
55031;SDS011;40928;51.076;7.950;2023-01-10T11:49:26;10.02;;;1.83;;
55031;SDS011;40928;51.076;7.950;2023-01-10T11:52:04;12.00;;;1.98;;
55031;SDS011;40928;51.076;7.950;2023-01-10T11:54:50;14.52;;;1.98;;
55031;SDS011;40928;51.076;7.950;2023-01-10T11:57:22;16.48;;;2.30;;
55031;SDS011;40928;51.076;7.950;2023-01-10T11:59:53;6.45;;;1.27;;
55031;SDS011;40928;51.076;7.950;2023-01-10T12:02:26;13.27;;;1.83;;
55031;SDS011;40928;51.076;7.950;2023-01-10T12:05:00;13.00;;;1.48;;
55031;SDS011;40928;51.076;7.950;2023-01-10T12:07:28;12.75;;;1.77;;
55031;SDS011;40928;51.076;7.950;2023-01-10T12:10:19;8.68;;;1.83;;
55031;SDS011;40928;51.076;7.950;2023-01-10T12:12:53;15.05;;;2.67;;
55031;SDS011;40928;51.076;7.950;2023-01-10T12:15:30;8.50;;;1.50;;
55031;SDS011;40928;51.076;7.950;2023-01-10T12:17:56;13.00;;;2.00;;
55031;SDS011;40928;51.076;7.950;2023-01-10T12:20:28;13.57;;;1.65;;
55031;SDS011;40928;51.076;7.950;2023-01-10T12:22:57;14.27;;;1.63;;
55031;SDS011;40928;51.076;7.950;2023-01-10T12:28:00;16.85;;;1.40;;
55031;SDS011;40928;51.076;7.950;2023-01-10T12:30:35;11.90;;;1.55;;
55031;SDS011;40928;51.076;7.950;2023-01-10T12:33:11;20.60;;;2.15;;
55031;SDS011;40928;51.076;7.950;2023-01-10T12:38:35;5.40;;;1.15;;
55031;SDS011;40928;51.076;7.950;2023-01-10T12:41:26;20.13;;;1.63;;
55031;SDS011;40928;51.076;7.950;2023-01-10T12:47:24;14.13;;;1.25;;
55031;SDS011;40928;51.076;7.950;2023-01-10T12:50:12;11.00;;;1.63;;
55031;SDS011;40928;51.076;7.950;2023-01-10T12:52:45;19.45;;;2.58;;
55031;SDS011;40928;51.076;7.950;2023-01-10T12:55:20;12.05;;;1.23;;
55031;SDS011;40928;51.076;7.950;2023-01-10T12:57:49;10.60;;;1.92;;
55031;SDS011;40928;51.076;7.950;2023-01-10T13:00:20;8.68;;;1.70;;
55031;SDS011;40928;51.076;7.950;2023-01-10T13:02:55;18.05;;;2.83;;
55031;SDS011;40928;51.076;7.950;2023-01-10T13:05:25;18.00;;;1.83;;
55031;SDS011;40928;51.076;7.950;2023-01-10T13:08:03;11.48;;;1.45;;
55031;SDS011;40928;51.076;7.950;2023-01-10T13:14:04;15.60;;;1.35;;
55031;SDS011;40928;51.076;7.950;2023-01-10T13:16:41;9.60;;;2.05;;
55031;SDS011;40928;51.076;7.950;2023-01-10T13:19:26;15.18;;;1.42;;
55031;SDS011;40928;51.076;7.950;2023-01-10T13:22:15;14.45;;;1.95;;
55031;SDS011;40928;51.076;7.950;2023-01-10T13:25:00;14.93;;;1.40;;
55031;SDS011;40928;51.076;7.950;2023-01-10T13:27:53;15.90;;;1.77;;
55031;SDS011;40928;51.076;7.950;2023-01-10T13:33:04;9.75;;;1.33;;
55031;SDS011;40928;51.076;7.950;2023-01-10T13:35:45;15.25;;;2.13;;
55031;SDS011;40928;51.076;7.950;2023-01-10T13:38:21;9.02;;;1.48;;
55031;SDS011;40928;51.076;7.950;2023-01-10T13:41:06;12.40;;;1.75;;
55031;SDS011;40928;51.076;7.950;2023-01-10T13:46:34;13.05;;;1.75;;
55031;SDS011;40928;51.076;7.950;2023-01-10T13:51:28;8.02;;;1.33;;
55031;SDS011;40928;51.076;7.950;2023-01-10T13:53:59;16.13;;;2.20;;
55031;SDS011;40928;51.076;7.950;2023-01-10T13:58:54;9.52;;;1.42;;
55031;SDS011;40928;51.076;7.950;2023-01-10T14:01:38;10.48;;;1.90;;
55031;SDS011;40928;51.076;7.950;2023-01-10T14:04:33;13.98;;;1.60;;
55031;SDS011;40928;51.076;7.950;2023-01-10T14:07:03;13.23;;;1.80;;
55031;SDS011;40928;51.076;7.950;2023-01-10T14:09:38;11.57;;;1.35;;
55031;SDS011;40928;51.076;7.950;2023-01-10T14:20:31;14.10;;;2.17;;
55031;SDS011;40928;51.076;7.950;2023-01-10T14:25:24;22.85;;;1.92;;
55031;SDS011;40928;51.076;7.950;2023-01-10T14:28:00;14.15;;;1.58;;
55031;SDS011;40928;51.076;7.950;2023-01-10T14:31:08;24.65;;;2.22;;
55031;SDS011;40928;51.076;7.950;2023-01-10T14:33:42;13.02;;;1.42;;
55031;SDS011;40928;51.076;7.950;2023-01-10T14:36:13;13.55;;;1.70;;
55031;SDS011;40928;51.076;7.950;2023-01-10T14:38:41;20.40;;;1.75;;
55031;SDS011;40928;51.076;7.950;2023-01-10T14:41:19;17.88;;;1.92;;
55031;SDS011;40928;51.076;7.950;2023-01-10T14:44:26;8.82;;;1.38;;
55031;SDS011;40928;51.076;7.950;2023-01-10T14:46:57;15.48;;;2.15;;
55031;SDS011;40928;51.076;7.950;2023-01-10T14:49:28;11.73;;;1.48;;
55031;SDS011;40928;51.076;7.950;2023-01-10T14:52:19;14.18;;;2.20;;
55031;SDS011;40928;51.076;7.950;2023-01-10T14:54:53;11.27;;;1.48;;
55031;SDS011;40928;51.076;7.950;2023-01-10T14:57:27;14.65;;;1.95;;
55031;SDS011;40928;51.076;7.950;2023-01-10T15:00:00;12.50;;;2.03;;
55031;SDS011;40928;51.076;7.950;2023-01-10T15:02:29;11.75;;;1.85;;
55031;SDS011;40928;51.076;7.950;2023-01-10T15:05:00;15.65;;;2.47;;
55031;SDS011;40928;51.076;7.950;2023-01-10T15:07:39;12.13;;;1.55;;
55031;SDS011;40928;51.076;7.950;2023-01-10T15:10:48;12.20;;;2.05;;
55031;SDS011;40928;51.076;7.950;2023-01-10T15:13:03;10.20;;;2.42;;
55031;SDS011;40928;51.076;7.950;2023-01-10T15:15:32;13.52;;;1.95;;
55031;SDS011;40928;51.076;7.950;2023-01-10T15:17:59;14.43;;;1.92;;
55031;SDS011;40928;51.076;7.950;2023-01-10T15:20:30;11.27;;;1.67;;
55031;SDS011;40928;51.076;7.950;2023-01-10T15:22:58;12.80;;;1.80;;
55031;SDS011;40928;51.076;7.950;2023-01-10T15:25:27;7.28;;;1.77;;
55031;SDS011;40928;51.076;7.950;2023-01-10T15:27:55;13.38;;;1.75;;
55031;SDS011;40928;51.076;7.950;2023-01-10T15:30:23;18.88;;;3.03;;
55031;SDS011;40928;51.076;7.950;2023-01-10T15:32:54;15.65;;;1.83;;
55031;SDS011;40928;51.076;7.950;2023-01-10T15:35:31;17.80;;;2.28;;
55031;SDS011;40928;51.076;7.950;2023-01-10T15:38:04;10.35;;;2.70;;
55031;SDS011;40928;51.076;7.950;2023-01-10T15:40:36;4.97;;;1.65;;
55031;SDS011;40928;51.076;7.950;2023-01-10T15:43:24;8.55;;;1.77;;
55031;SDS011;40928;51.076;7.950;2023-01-10T15:45:54;8.88;;;2.00;;
55031;SDS011;40928;51.076;7.950;2023-01-10T15:51:13;14.15;;;1.58;;
55031;SDS011;40928;51.076;7.950;2023-01-10T15:53:58;16.05;;;2.22;;
55031;SDS011;40928;51.076;7.950;2023-01-10T15:56:31;16.70;;;2.00;;
55031;SDS011;40928;51.076;7.950;2023-01-10T15:59:03;13.00;;;1.90;;
55031;SDS011;40928;51.076;7.950;2023-01-10T16:01:55;14.15;;;2.63;;
55031;SDS011;40928;51.076;7.950;2023-01-10T16:04:32;15.38;;;3.33;;
55031;SDS011;40928;51.076;7.950;2023-01-10T16:07:10;14.73;;;2.72;;
55031;SDS011;40928;51.076;7.950;2023-01-10T16:09:46;7.15;;;1.58;;
55031;SDS011;40928;51.076;7.950;2023-01-10T16:12:26;15.70;;;2.53;;
55031;SDS011;40928;51.076;7.950;2023-01-10T16:15:16;15.27;;;2.78;;
55031;SDS011;40928;51.076;7.950;2023-01-10T16:17:45;18.75;;;3.22;;
55031;SDS011;40928;51.076;7.950;2023-01-10T16:20:15;21.85;;;3.13;;
55031;SDS011;40928;51.076;7.950;2023-01-10T16:22:50;11.77;;;1.70;;
55031;SDS011;40928;51.076;7.950;2023-01-10T16:25:18;19.20;;;2.65;;
55031;SDS011;40928;51.076;7.950;2023-01-10T16:31:33;5.80;;;1.58;;
55031;SDS011;40928;51.076;7.950;2023-01-10T16:34:02;12.70;;;2.67;;
55031;SDS011;40928;51.076;7.950;2023-01-10T16:36:30;16.50;;;2.22;;
55031;SDS011;40928;51.076;7.950;2023-01-10T16:38:56;18.40;;;2.17;;
55031;SDS011;40928;51.076;7.950;2023-01-10T16:41:31;17.40;;;2.35;;
55031;SDS011;40928;51.076;7.950;2023-01-10T16:44:19;13.15;;;1.75;;
55031;SDS011;40928;51.076;7.950;2023-01-10T16:46:45;9.57;;;3.10;;
55031;SDS011;40928;51.076;7.950;2023-01-10T16:49:11;19.20;;;2.45;;
55031;SDS011;40928;51.076;7.950;2023-01-10T16:51:37;29.02;;;2.10;;
55031;SDS011;40928;51.076;7.950;2023-01-10T16:54:04;11.95;;;2.22;;
55031;SDS011;40928;51.076;7.950;2023-01-10T16:56:29;14.93;;;2.15;;